GCLP/LPA METAR and TAF weather

Enter ICAO airport designator
Station Type Date Time Source
GCLP METAR 2020/03/31 22:30 UTC NOAA

GCLP 312230Z 33002KT 9999 FEW020 BKN040 19/15 Q1017 NOSIG


Station Type Date Time Source
GCLP Decoded METAR 2020/03/31 22:30 UTC NOAA

Gran Canaria - Canary Islands, Spain (GCLP) 27-56N 015-23W 47M
Mar 31, 2020 - 06:30 PM EDT / 2020.03.31 2230 UTC
Wind: from the NNW (330 degrees) at 2 MPH (2 KT):0
Visibility: greater than 7 mile(s):0
Sky conditions: mostly cloudy
Temperature: 66 F (19 C)
Dew Point: 59 F (15 C)
Relative Humidity: 77%
Pressure (altimeter): 30.03 in. Hg (1017 hPa)
ob: GCLP 312230Z 33002KT 9999 FEW020 BKN040 19/15 Q1017 NOSIG
cycle: 22

Station Type Date Time Source
GCLP TAF 2020/03/31 21:30 UTC NOAA

TAF GCLP 312000Z 3121/0121 33006KT 9999 BKN030 TX22/0113Z TN16/0106Z
BECMG 0109/0111 04010KT

Example: see airport list